sensor_id;sensor_type;location;lat;lon;timestamp;pressure;altitude;pressure_sealevel;temperature;humidity
53647;BME280;39550;52.230;5.194;2023-06-22T00:01:03;101829.72;;;21.63;62.13
53647;BME280;39550;52.230;5.194;2023-06-22T00:03:28;101822.06;;;21.55;62.03
53647;BME280;39550;52.230;5.194;2023-06-22T00:05:53;101775.28;;;21.33;62.38
53647;BME280;39550;52.230;5.194;2023-06-22T00:08:21;101812.47;;;21.52;61.93
53647;BME280;39550;52.230;5.194;2023-06-22T00:10:47;101776.22;;;21.31;62.29
53647;BME280;39550;52.230;5.194;2023-06-22T00:13:13;101784.91;;;21.33;62.30
53647;BME280;39550;52.230;5.194;2023-06-22T00:15:40;101829.81;;;21.59;62.06
53647;BME280;39550;52.230;5.194;2023-06-22T00:18:06;101807.38;;;21.44;62.15
53647;BME280;39550;52.230;5.194;2023-06-22T00:20:32;101798.00;;;21.34;62.21
53647;BME280;39550;52.230;5.194;2023-06-22T00:22:58;101773.78;;;21.23;62.06
53647;BME280;39550;52.230;5.194;2023-06-22T00:25:24;101854.13;;;21.66;61.92
53647;BME280;39550;52.230;5.194;2023-06-22T00:27:49;101852.38;;;21.67;62.12
53647;BME280;39550;52.230;5.194;2023-06-22T00:30:16;101799.72;;;21.35;62.34
53647;BME280;39550;52.230;5.194;2023-06-22T00:32:42;101841.22;;;21.57;62.26
53647;BME280;39550;52.230;5.194;2023-06-22T00:35:07;101837.72;;;21.58;62.44
53647;BME280;39550;52.230;5.194;2023-06-22T00:37:34;101846.34;;;21.63;62.12
53647;BME280;39550;52.230;5.194;2023-06-22T00:40:01;101826.41;;;21.54;62.34
53647;BME280;39550;52.230;5.194;2023-06-22T00:42:26;101815.22;;;21.44;62.38
53647;BME280;39550;52.230;5.194;2023-06-22T00:44:52;101781.59;;;21.24;62.28
53647;BME280;39550;52.230;5.194;2023-06-22T00:47:17;101834.19;;;21.59;62.21
53647;BME280;39550;52.230;5.194;2023-06-22T00:49:43;101835.09;;;21.58;62.41
53647;BME280;39550;52.230;5.194;2023-06-22T00:52:10;101828.09;;;21.57;62.44
53647;BME280;39550;52.230;5.194;2023-06-22T00:54:40;101829.03;;;21.56;62.50
53647;BME280;39550;52.230;5.194;2023-06-22T00:57:05;101757.50;;;21.07;62.32
53647;BME280;39550;52.230;5.194;2023-06-22T00:59:35;101734.88;;;21.03;62.59
53647;BME280;39550;52.230;5.194;2023-06-22T01:02:01;101825.56;;;21.54;62.16
53647;BME280;39550;52.230;5.194;2023-06-22T01:04:36;101731.53;;;20.98;62.49
53647;BME280;39550;52.230;5.194;2023-06-22T01:10:07;101821.25;;;21.50;62.70
53647;BME280;39550;52.230;5.194;2023-06-22T01:12:42;101749.72;;;21.04;62.45
53647;BME280;39550;52.230;5.194;2023-06-22T01:15:20;101775.56;;;21.21;62.87
53647;BME280;39550;52.230;5.194;2023-06-22T01:17:48;101768.72;;;21.14;62.49
53647;BME280;39550;52.230;5.194;2023-06-22T01:20:15;101816.97;;;21.46;62.84
53647;BME280;39550;52.230;5.194;2023-06-22T01:25:59;101808.41;;;21.37;62.90
53647;BME280;39550;52.230;5.194;2023-06-22T01:28:49;101741.13;;;20.97;62.91
53647;BME280;39550;52.230;5.194;2023-06-22T01:31:18;101775.66;;;21.16;62.79
53647;BME280;39550;52.230;5.194;2023-06-22T01:33:45;101818.91;;;21.37;63.00
53647;BME280;39550;52.230;5.194;2023-06-22T01:36:12;101823.22;;;21.40;62.75
53647;BME280;39550;52.230;5.194;2023-06-22T01:38:38;101823.28;;;21.37;63.05
53647;BME280;39550;52.230;5.194;2023-06-22T01:41:04;101815.56;;;21.29;62.58
53647;BME280;39550;52.230;5.194;2023-06-22T01:43:31;101832.88;;;21.36;62.58
53647;BME280;39550;52.230;5.194;2023-06-22T01:45:58;101823.38;;;21.32;63.10
53647;BME280;39550;52.230;5.194;2023-06-22T01:48:24;101801.84;;;21.18;62.77
53647;BME280;39550;52.230;5.194;2023-06-22T01:50:51;101776.78;;;21.04;62.99
53647;BME280;39550;52.230;5.194;2023-06-22T01:53:17;101766.41;;;21.00;63.04
53647;BME280;39550;52.230;5.194;2023-06-22T01:55:42;101793.00;;;21.22;62.86
53647;BME280;39550;52.230;5.194;2023-06-22T01:58:08;101772.38;;;21.06;63.00
53647;BME280;39550;52.230;5.194;2023-06-22T02:00:39;101786.25;;;21.12;63.16
53647;BME280;39550;52.230;5.194;2023-06-22T02:03:11;101750.84;;;20.90;62.96
53647;BME280;39550;52.230;5.194;2023-06-22T02:05:43;101758.66;;;20.95;63.02
53647;BME280;39550;52.230;5.194;2023-06-22T02:08:19;101784.44;;;21.14;63.60
53647;BME280;39550;52.230;5.194;2023-06-22T02:10:47;101792.34;;;21.12;63.37
53647;BME280;39550;52.230;5.194;2023-06-22T02:13:14;101793.16;;;21.16;63.51
53647;BME280;39550;52.230;5.194;2023-06-22T02:15:39;101753.50;;;20.89;63.00
53647;BME280;39550;52.230;5.194;2023-06-22T02:18:05;101740.56;;;20.83;63.08
53647;BME280;39550;52.230;5.194;2023-06-22T02:20:31;101786.38;;;21.05;63.02
53647;BME280;39550;52.230;5.194;2023-06-22T02:22:56;101758.75;;;20.89;63.36
53647;BME280;39550;52.230;5.194;2023-06-22T02:25:22;101805.41;;;21.14;63.17
53647;BME280;39550;52.230;5.194;2023-06-22T02:27:47;101782.97;;;21.00;63.22
53647;BME280;39550;52.230;5.194;2023-06-22T02:30:13;101808.88;;;21.14;63.52
53647;BME280;39550;52.230;5.194;2023-06-22T02:32:40;101752.78;;;20.84;62.91
53647;BME280;39550;52.230;5.194;2023-06-22T02:35:09;101771.78;;;20.92;63.15
53647;BME280;39550;52.230;5.194;2023-06-22T02:37:36;101766.53;;;20.92;62.90
53647;BME280;39550;52.230;5.194;2023-06-22T02:40:05;101764.00;;;20.89;62.90
53647;BME280;39550;52.230;5.194;2023-06-22T02:42:32;101801.16;;;21.08;63.63
53647;BME280;39550;52.230;5.194;2023-06-22T02:44:57;101747.63;;;20.78;63.26
53647;BME280;39550;52.230;5.194;2023-06-22T02:47:23;101791.69;;;21.02;63.01
53647;BME280;39550;52.230;5.194;2023-06-22T02:49:48;101771.84;;;20.89;63.46
53647;BME280;39550;52.230;5.194;2023-06-22T02:52:14;101700.22;;;20.46;63.37
53647;BME280;39550;52.230;5.194;2023-06-22T02:54:39;101767.56;;;20.85;63.20
53647;BME280;39550;52.230;5.194;2023-06-22T02:57:05;101752.00;;;20.79;63.30
53647;BME280;39550;52.230;5.194;2023-06-22T02:59:30;101788.22;;;21.00;63.47
53647;BME280;39550;52.230;5.194;2023-06-22T03:01:55;101797.00;;;20.99;63.34
53647;BME280;39550;52.230;5.194;2023-06-22T03:04:21;101731.34;;;20.60;63.38
53647;BME280;39550;52.230;5.194;2023-06-22T03:06:46;101748.69;;;20.67;63.25
53647;BME280;39550;52.230;5.194;2023-06-22T03:09:16;101739.09;;;20.66;63.20
53647;BME280;39550;52.230;5.194;2023-06-22T03:11:42;101724.53;;;20.53;63.24
53647;BME280;39550;52.230;5.194;2023-06-22T03:14:08;101781.53;;;20.87;63.48
53647;BME280;39550;52.230;5.194;2023-06-22T03:16:33;101752.22;;;20.66;63.22
53647;BME280;39550;52.230;5.194;2023-06-22T03:18:59;101725.41;;;20.52;63.36
53647;BME280;39550;52.230;5.194;2023-06-22T03:21:28;101791.03;;;20.91;63.27
53647;BME280;39550;52.230;5.194;2023-06-22T03:27:06;101694.50;;;20.25;63.30
53647;BME280;39550;52.230;5.194;2023-06-22T03:29:31;101675.06;;;19.92;62.19
53647;BME280;39550;52.230;5.194;2023-06-22T03:31:56;101767.38;;;20.49;62.47
53647;BME280;39550;52.230;5.194;2023-06-22T03:34:22;101709.28;;;20.28;62.95
53647;BME280;39550;52.230;5.194;2023-06-22T03:36:47;101770.53;;;20.68;63.00
53647;BME280;39550;52.230;5.194;2023-06-22T03:39:13;101780.94;;;20.71;62.84
53647;BME280;39550;52.230;5.194;2023-06-22T03:41:38;101755.00;;;20.57;62.90
53647;BME280;39550;52.230;5.194;2023-06-22T03:44:04;101764.44;;;20.64;63.08
53647;BME280;39550;52.230;5.194;2023-06-22T03:46:29;101701.41;;;20.30;62.81
53647;BME280;39550;52.230;5.194;2023-06-22T03:48:55;101701.44;;;20.28;62.98
53647;BME280;39550;52.230;5.194;2023-06-22T03:51:20;101751.50;;;20.58;63.04
53647;BME280;39550;52.230;5.194;2023-06-22T03:53:46;101714.50;;;20.30;62.81
53647;BME280;39550;52.230;5.194;2023-06-22T03:56:11;101723.09;;;20.36;62.94
53647;BME280;39550;52.230;5.194;2023-06-22T03:58:37;101710.19;;;20.25;63.25
53647;BME280;39550;52.230;5.194;2023-06-22T04:01:08;101733.47;;;20.42;63.26
53647;BME280;39550;52.230;5.194;2023-06-22T04:03:36;101694.69;;;20.16;62.94
53647;BME280;39550;52.230;5.194;2023-06-22T04:06:02;101751.59;;;20.53;63.01
53647;BME280;39550;52.230;5.194;2023-06-22T04:08:27;101743.06;;;20.44;63.06
53647;BME280;39550;52.230;5.194;2023-06-22T04:10:53;101768.84;;;20.64;63.37
53647;BME280;39550;52.230;5.194;2023-06-22T04:13:18;101757.72;;;20.52;63.05
53647;BME280;39550;52.230;5.194;2023-06-22T04:15:44;101717.09;;;20.30;63.35
53647;BME280;39550;52.230;5.194;2023-06-22T04:18:09;101694.72;;;20.15;63.20
53647;BME280;39550;52.230;5.194;2023-06-22T04:20:34;101765.38;;;20.63;63.15
53647;BME280;39550;52.230;5.194;2023-06-22T04:23:00;101767.09;;;20.63;63.60
53647;BME280;39550;52.230;5.194;2023-06-22T04:25:25;101741.28;;;20.44;63.17
53647;BME280;39550;52.230;5.194;2023-06-22T04:27:51;101768.91;;;20.61;62.86
53647;BME280;39550;52.230;5.194;2023-06-22T04:30:16;101707.63;;;20.24;63.26
53647;BME280;39550;52.230;5.194;2023-06-22T04:32:42;101735.16;;;20.45;63.31
53647;BME280;39550;52.230;5.194;2023-06-22T04:35:08;101761.09;;;20.59;62.90
53647;BME280;39550;52.230;5.194;2023-06-22T04:37:34;101723.09;;;20.36;63.45
53647;BME280;39550;52.230;5.194;2023-06-22T04:39:59;101749.72;;;20.58;63.29
53647;BME280;39550;52.230;5.194;2023-06-22T04:42:26;101750.59;;;20.59;63.04
53647;BME280;39550;52.230;5.194;2023-06-22T04:44:51;101735.22;;;20.40;63.28
53647;BME280;39550;52.230;5.194;2023-06-22T04:47:17;101762.03;;;20.55;63.28
53647;BME280;39550;52.230;5.194;2023-06-22T04:49:42;101770.72;;;20.57;63.27
53647;BME280;39550;52.230;5.194;2023-06-22T04:52:11;101761.97;;;20.58;63.08
53647;BME280;39550;52.230;5.194;2023-06-22T04:54:38;101764.59;;;20.58;62.94
53647;BME280;39550;52.230;5.194;2023-06-22T04:57:05;101737.78;;;20.45;63.08
53647;BME280;39550;52.230;5.194;2023-06-22T04:59:35;101762.84;;;20.57;63.29
53647;BME280;39550;52.230;5.194;2023-06-22T05:02:01;101704.13;;;20.25;62.81
53647;BME280;39550;52.230;5.194;2023-06-22T05:04:29;101756.63;;;20.63;62.89
53647;BME280;39550;52.230;5.194;2023-06-22T05:06:57;101739.44;;;20.48;62.86
53647;BME280;39550;52.230;5.194;2023-06-22T05:09:26;101747.22;;;20.54;63.01
53647;BME280;39550;52.230;5.194;2023-06-22T05:11:54;101710.94;;;20.32;62.90
53647;BME280;39550;52.230;5.194;2023-06-22T05:14:21;101745.47;;;20.53;63.17
53647;BME280;39550;52.230;5.194;2023-06-22T05:16:48;101734.28;;;20.45;62.81
53647;BME280;39550;52.230;5.194;2023-06-22T05:19:13;101745.41;;;20.56;62.63
53647;BME280;39550;52.230;5.194;2023-06-22T05:21:39;101743.81;;;20.49;64.22
53647;BME280;39550;52.230;5.194;2023-06-22T05:24:04;101731.81;;;20.37;65.36
53647;BME280;39550;52.230;5.194;2023-06-22T05:26:31;101714.75;;;20.16;67.66
53647;BME280;39550;52.230;5.194;2023-06-22T05:28:58;101714.94;;;20.06;67.33
53647;BME280;39550;52.230;5.194;2023-06-22T05:31:24;101744.28;;;20.22;67.73
53647;BME280;39550;52.230;5.194;2023-06-22T05:33:51;101740.88;;;20.19;66.82
53647;BME280;39550;52.230;5.194;2023-06-22T05:36:17;101721.03;;;20.05;68.91
53647;BME280;39550;52.230;5.194;2023-06-22T05:38:45;101732.44;;;20.01;68.37
53647;BME280;39550;52.230;5.194;2023-06-22T05:41:10;101767.72;;;20.30;68.36
53647;BME280;39550;52.230;5.194;2023-06-22T05:43:35;101749.63;;;20.18;69.99
53647;BME280;39550;52.230;5.194;2023-06-22T05:46:01;101733.28;;;20.03;70.18
53647;BME280;39550;52.230;5.194;2023-06-22T05:48:27;101682.41;;;19.68;70.40
53647;BME280;39550;52.230;5.194;2023-06-22T05:50:53;101699.66;;;19.82;71.57
53647;BME280;39550;52.230;5.194;2023-06-22T05:53:18;101710.13;;;19.82;71.43
53647;BME280;39550;52.230;5.194;2023-06-22T05:55:44;101711.75;;;19.89;71.00
53647;BME280;39550;52.230;5.194;2023-06-22T05:58:09;101701.34;;;19.86;71.71
53647;BME280;39550;52.230;5.194;2023-06-22T06:00:35;101773.78;;;20.32;71.96
53647;BME280;39550;52.230;5.194;2023-06-22T06:03:00;101723.78;;;19.99;72.33
53647;BME280;39550;52.230;5.194;2023-06-22T06:05:32;101684.19;;;19.66;72.52
53647;BME280;39550;52.230;5.194;2023-06-22T06:07:59;101727.38;;;19.92;72.86
53647;BME280;39550;52.230;5.194;2023-06-22T06:10:25;101774.88;;;20.20;73.42
53647;BME280;39550;52.230;5.194;2023-06-22T06:12:50;101753.31;;;20.04;73.11
53647;BME280;39550;52.230;5.194;2023-06-22T06:15:16;101657.47;;;19.49;73.63
53647;BME280;39550;52.230;5.194;2023-06-22T06:17:46;101779.19;;;20.23;73.65
53647;BME280;39550;52.230;5.194;2023-06-22T06:20:12;101767.97;;;20.16;73.95
53647;BME280;39550;52.230;5.194;2023-06-22T06:22:37;101651.28;;;19.53;74.36
53647;BME280;39550;52.230;5.194;2023-06-22T06:25:03;101698.78;;;19.81;74.23
53647;BME280;39550;52.230;5.194;2023-06-22T06:27:29;101699.59;;;19.85;74.66
53647;BME280;39550;52.230;5.194;2023-06-22T06:29:55;101752.19;;;20.19;74.72
53647;BME280;39550;52.230;5.194;2023-06-22T06:32:20;101752.97;;;20.26;73.30
53647;BME280;39550;52.230;5.194;2023-06-22T06:34:46;101739.00;;;20.27;73.36
53647;BME280;39550;52.230;5.194;2023-06-22T06:37:11;101702.59;;;20.12;72.60
53647;BME280;39550;52.230;5.194;2023-06-22T06:39:36;101718.97;;;20.24;71.80
53647;BME280;39550;52.230;5.194;2023-06-22T06:42:02;101728.28;;;20.39;71.78
53647;BME280;39550;52.230;5.194;2023-06-22T06:44:27;101674.84;;;20.04;71.31
53647;BME280;39550;52.230;5.194;2023-06-22T06:46:53;101668.78;;;20.02;71.09
53647;BME280;39550;52.230;5.194;2023-06-22T06:49:19;101745.47;;;20.53;70.60
53647;BME280;39550;52.230;5.194;2023-06-22T06:51:44;101669.59;;;20.04;70.45
53647;BME280;39550;52.230;5.194;2023-06-22T06:54:10;101745.41;;;20.56;70.15
53647;BME280;39550;52.230;5.194;2023-06-22T06:56:35;101721.25;;;20.41;70.19
53647;BME280;39550;52.230;5.194;2023-06-22T06:59:02;101719.41;;;20.47;70.08
53647;BME280;39550;52.230;5.194;2023-06-22T07:01:28;101705.53;;;20.41;69.64
53647;BME280;39550;52.230;5.194;2023-06-22T07:03:59;101677.94;;;20.25;69.32
53647;BME280;39550;52.230;5.194;2023-06-22T07:06:25;101680.53;;;20.27;69.12
53647;BME280;39550;52.230;5.194;2023-06-22T07:08:55;101707.22;;;20.46;69.17
53647;BME280;39550;52.230;5.194;2023-06-22T07:13:47;101740.00;;;20.65;69.10
53647;BME280;39550;52.230;5.194;2023-06-22T07:16:12;101740.88;;;20.66;69.69
53647;BME280;39550;52.230;5.194;2023-06-22T07:18:39;101731.31;;;20.63;69.44
53647;BME280;39550;52.230;5.194;2023-06-22T07:21:05;101727.78;;;20.64;69.30
53647;BME280;39550;52.230;5.194;2023-06-22T07:23:32;101726.97;;;20.62;69.21
53647;BME280;39550;52.230;5.194;2023-06-22T07:25:57;101720.84;;;20.63;69.59
53647;BME280;39550;52.230;5.194;2023-06-22T07:28:23;101727.84;;;20.61;70.03
53647;BME280;39550;52.230;5.194;2023-06-22T07:30:48;101725.19;;;20.63;69.26
53647;BME280;39550;52.230;5.194;2023-06-22T07:33:13;101723.50;;;20.62;69.59
53647;BME280;39550;52.230;5.194;2023-06-22T07:35:39;101729.59;;;20.62;69.46
53647;BME280;39550;52.230;5.194;2023-06-22T07:38:04;101732.13;;;20.65;69.49
53647;BME280;39550;52.230;5.194;2023-06-22T07:40:30;101727.75;;;20.67;70.26
53647;BME280;39550;52.230;5.194;2023-06-22T07:42:55;101722.50;;;20.67;69.34
53647;BME280;39550;52.230;5.194;2023-06-22T07:45:21;101712.91;;;20.66;69.46
53647;BME280;39550;52.230;5.194;2023-06-22T07:47:46;101718.97;;;20.71;69.59
53647;BME280;39550;52.230;5.194;2023-06-22T07:50:11;101712.81;;;20.72;68.93
53647;BME280;39550;52.230;5.194;2023-06-22T07:52:37;101715.41;;;20.74;69.24
53647;BME280;39550;52.230;5.194;2023-06-22T07:55:03;101708.41;;;20.74;68.97
53647;BME280;39550;52.230;5.194;2023-06-22T07:57:28;101714.50;;;20.75;69.19
53647;BME280;39550;52.230;5.194;2023-06-22T08:00:03;101717.09;;;20.77;69.60
53647;BME280;39550;52.230;5.194;2023-06-22T08:02:40;101715.31;;;20.79;68.92
53647;BME280;39550;52.230;5.194;2023-06-22T08:05:07;101713.50;;;20.81;68.55
53647;BME280;39550;52.230;5.194;2023-06-22T08:07:34;101701.25;;;20.83;69.22
53647;BME280;39550;52.230;5.194;2023-06-22T08:10:02;101695.13;;;20.84;68.68
53647;BME280;39550;52.230;5.194;2023-06-22T08:12:27;101701.19;;;20.86;68.76
53647;BME280;39550;52.230;5.194;2023-06-22T08:14:53;101689.81;;;20.87;69.08
53647;BME280;39550;52.230;5.194;2023-06-22T08:17:18;101690.72;;;20.86;68.72
53647;BME280;39550;52.230;5.194;2023-06-22T08:19:43;101692.44;;;20.87;68.64
53647;BME280;39550;52.230;5.194;2023-06-22T08:22:08;101686.31;;;20.88;68.79
53647;BME280;39550;52.230;5.194;2023-06-22T08:24:34;101674.91;;;20.89;68.95
53647;BME280;39550;52.230;5.194;2023-06-22T08:26:59;101679.22;;;20.91;68.53
53647;BME280;39550;52.230;5.194;2023-06-22T08:29:25;101666.16;;;20.90;67.74
53647;BME280;39550;52.230;5.194;2023-06-22T08:31:50;101663.41;;;20.96;67.37
53647;BME280;39550;52.230;5.194;2023-06-22T08:34:15;101671.22;;;20.99;66.91
53647;BME280;39550;52.230;5.194;2023-06-22T08:36:41;101665.03;;;21.02;66.92
53647;BME280;39550;52.230;5.194;2023-06-22T08:39:10;101658.84;;;21.04;67.14
53647;BME280;39550;52.230;5.194;2023-06-22T08:41:35;101657.97;;;21.05;66.38
53647;BME280;39550;52.230;5.194;2023-06-22T08:44:00;101664.03;;;21.07;66.53
53647;BME280;39550;52.230;5.194;2023-06-22T08:46:26;101665.69;;;21.12;66.52
53647;BME280;39550;52.230;5.194;2023-06-22T08:48:56;101663.97;;;21.11;66.22
53647;BME280;39550;52.230;5.194;2023-06-22T08:51:22;101658.59;;;21.15;66.23
53647;BME280;39550;52.230;5.194;2023-06-22T08:53:48;101658.56;;;21.17;66.02
53647;BME280;39550;52.230;5.194;2023-06-22T08:56:13;101645.41;;;21.18;66.40
53647;BME280;39550;52.230;5.194;2023-06-22T08:58:39;101648.84;;;21.22;66.31
53647;BME280;39550;52.230;5.194;2023-06-22T09:01:04;101641.88;;;21.21;66.38
53647;BME280;39550;52.230;5.194;2023-06-22T09:03:29;101651.34;;;21.26;66.05
53647;BME280;39550;52.230;5.194;2023-06-22T09:05:55;101644.28;;;21.30;66.14
53647;BME280;39550;52.230;5.194;2023-06-22T09:08:20;101639.13;;;21.27;66.41
53647;BME280;39550;52.230;5.194;2023-06-22T09:10:46;101642.47;;;21.32;65.76
53647;BME280;39550;52.230;5.194;2023-06-22T09:13:11;101643.34;;;21.33;66.22
53647;BME280;39550;52.230;5.194;2023-06-22T09:15:36;101645.94;;;21.34;66.03
53647;BME280;39550;52.230;5.194;2023-06-22T09:18:02;101645.94;;;21.34;66.13
53647;BME280;39550;52.230;5.194;2023-06-22T09:20:27;101629.47;;;21.27;65.94
53647;BME280;39550;52.230;5.194;2023-06-22T09:22:52;101635.34;;;21.37;66.36
53647;BME280;39550;52.230;5.194;2023-06-22T09:25:18;101627.41;;;21.42;65.63
53647;BME280;39550;52.230;5.194;2023-06-22T09:27:46;101638.66;;;21.46;65.68
53647;BME280;39550;52.230;5.194;2023-06-22T09:30:11;101629.81;;;21.50;65.50
53647;BME280;39550;52.230;5.194;2023-06-22T09:32:36;101628.91;;;21.52;65.09
53647;BME280;39550;52.230;5.194;2023-06-22T09:35:04;101629.75;;;21.53;65.04
53647;BME280;39550;52.230;5.194;2023-06-22T09:37:33;101639.28;;;21.57;65.02
53647;BME280;39550;52.230;5.194;2023-06-22T09:39:59;101636.66;;;21.57;64.89
53647;BME280;39550;52.230;5.194;2023-06-22T09:42:25;101643.63;;;21.58;64.71
53647;BME280;39550;52.230;5.194;2023-06-22T09:44:50;101640.19;;;21.56;64.83
53647;BME280;39550;52.230;5.194;2023-06-22T09:47:15;101638.47;;;21.55;64.84
53647;BME280;39550;52.230;5.194;2023-06-22T09:49:41;101640.19;;;21.56;64.96
53647;BME280;39550;52.230;5.194;2023-06-22T09:52:06;101634.94;;;21.56;64.93
53647;BME280;39550;52.230;5.194;2023-06-22T09:54:32;101632.28;;;21.57;64.75
53647;BME280;39550;52.230;5.194;2023-06-22T09:56:57;101632.28;;;21.57;64.76
53647;BME280;39550;52.230;5.194;2023-06-22T09:59:23;101629.63;;;21.59;64.87
53647;BME280;39550;52.230;5.194;2023-06-22T10:01:48;101626.09;;;21.60;64.68
53647;BME280;39550;52.230;5.194;2023-06-22T10:04:13;101633.03;;;21.61;64.93
53647;BME280;39550;52.230;5.194;2023-06-22T10:06:39;101625.19;;;21.61;64.97
53647;BME280;39550;52.230;5.194;2023-06-22T10:09:06;101627.81;;;21.61;65.05
53647;BME280;39550;52.230;5.194;2023-06-22T10:11:32;101624.28;;;21.62;64.48
53647;BME280;39550;52.230;5.194;2023-06-22T10:14:00;101615.53;;;21.63;64.77
53647;BME280;39550;52.230;5.194;2023-06-22T10:16:30;101622.50;;;21.64;64.43
53647;BME280;39550;52.230;5.194;2023-06-22T10:18:56;101621.63;;;21.64;64.82
53647;BME280;39550;52.230;5.194;2023-06-22T10:21:22;101609.41;;;21.63;65.35
53647;BME280;39550;52.230;5.194;2023-06-22T10:23:47;101612.00;;;21.64;64.57
53647;BME280;39550;52.230;5.194;2023-06-22T10:26:12;101618.09;;;21.65;64.69
53647;BME280;39550;52.230;5.194;2023-06-22T10:28:38;101613.72;;;21.65;64.54
53647;BME280;39550;52.230;5.194;2023-06-22T10:31:03;101622.50;;;21.64;64.86
53647;BME280;39550;52.230;5.194;2023-06-22T10:33:28;101611.13;;;21.64;64.77
53647;BME280;39550;52.230;5.194;2023-06-22T10:35:54;101610.28;;;21.63;64.90
53647;BME280;39550;52.230;5.194;2023-06-22T10:38:19;101624.28;;;21.62;65.17
53647;BME280;39550;52.230;5.194;2023-06-22T10:40:45;101613.84;;;21.60;64.75
53647;BME280;39550;52.230;5.194;2023-06-22T10:43:10;101615.63;;;21.58;64.91
53647;BME280;39550;52.230;5.194;2023-06-22T10:45:36;101617.41;;;21.58;65.05
53647;BME280;39550;52.230;5.194;2023-06-22T10:48:01;101623.53;;;21.57;64.72
53647;BME280;39550;52.230;5.194;2023-06-22T10:50:26;101624.47;;;21.56;64.95
53647;BME280;39550;52.230;5.194;2023-06-22T10:52:53;101621.06;;;21.51;65.22
53647;BME280;39550;52.230;5.194;2023-06-22T10:55:19;101629.75;;;21.53;64.63
53647;BME280;39550;52.230;5.194;2023-06-22T10:57:44;101622.78;;;21.52;64.96
53647;BME280;39550;52.230;5.194;2023-06-22T11:00:14;101625.41;;;21.52;65.29
53647;BME280;39550;52.230;5.194;2023-06-22T11:02:40;101624.53;;;21.51;65.09
53647;BME280;39550;52.230;5.194;2023-06-22T11:05:06;101629.75;;;21.53;65.09
53647;BME280;39550;52.230;5.194;2023-06-22T11:07:31;101634.09;;;21.54;64.84
53647;BME280;39550;52.230;5.194;2023-06-22T11:09:58;101629.81;;;21.50;65.01
53647;BME280;39550;52.230;5.194;2023-06-22T11:12:23;101631.50;;;21.54;65.11
53647;BME280;39550;52.230;5.194;2023-06-22T11:14:49;101635.00;;;21.53;64.85
53647;BME280;39550;52.230;5.194;2023-06-22T11:17:19;101626.28;;;21.51;65.36
53647;BME280;39550;52.230;5.194;2023-06-22T11:19:45;101625.41;;;21.52;65.24
53647;BME280;39550;52.230;5.194;2023-06-22T11:22:10;101628.03;;;21.52;65.12
53647;BME280;39550;52.230;5.194;2023-06-22T11:24:35;101633.28;;;21.52;65.28
53647;BME280;39550;52.230;5.194;2023-06-22T11:27:01;101624.56;;;21.50;65.25
53647;BME280;39550;52.230;5.194;2023-06-22T11:29:26;101628.25;;;21.42;65.62
53647;BME280;39550;52.230;5.194;2023-06-22T11:31:52;101629.81;;;21.50;65.67
53647;BME280;39550;52.230;5.194;2023-06-22T11:34:17;101628.06;;;21.49;65.83
53647;BME280;39550;52.230;5.194;2023-06-22T11:36:44;101622.84;;;21.49;65.45
53647;BME280;39550;52.230;5.194;2023-06-22T11:39:10;101615.88;;;21.48;65.43
53647;BME280;39550;52.230;5.194;2023-06-22T11:41:36;101610.66;;;21.48;65.40
53647;BME280;39550;52.230;5.194;2023-06-22T11:44:01;101618.50;;;21.48;65.17
53647;BME280;39550;52.230;5.194;2023-06-22T11:46:26;101608.03;;;21.48;65.81
53647;BME280;39550;52.230;5.194;2023-06-22T11:48:52;101610.66;;;21.48;65.24
53647;BME280;39550;52.230;5.194;2023-06-22T11:51:17;101605.41;;;21.48;65.44
53647;BME280;39550;52.230;5.194;2023-06-22T11:53:42;101596.63;;;21.49;65.37
53647;BME280;39550;52.230;5.194;2023-06-22T11:56:08;101599.22;;;21.50;65.60
53647;BME280;39550;52.230;5.194;2023-06-22T11:58:33;101591.31;;;21.52;64.90
53647;BME280;39550;52.230;5.194;2023-06-22T12:00:58;101584.28;;;21.54;65.09
53647;BME280;39550;52.230;5.194;2023-06-22T12:03:24;101571.22;;;21.51;64.96
53647;BME280;39550;52.230;5.194;2023-06-22T12:05:50;101573.78;;;21.54;65.13
53647;BME280;39550;52.230;5.194;2023-06-22T12:08:17;101565.94;;;21.54;65.03
53647;BME280;39550;52.230;5.194;2023-06-22T12:10:42;101572.06;;;21.53;64.91
53647;BME280;39550;52.230;5.194;2023-06-22T12:13:08;101559.84;;;21.52;65.12
53647;BME280;39550;52.230;5.194;2023-06-22T12:15:33;101559.84;;;21.52;64.91
53647;BME280;39550;52.230;5.194;2023-06-22T12:17:58;101563.38;;;21.51;65.35
53647;BME280;39550;52.230;5.194;2023-06-22T12:20:24;101549.41;;;21.49;65.42
53647;BME280;39550;52.230;5.194;2023-06-22T12:22:49;101549.41;;;21.49;65.26
53647;BME280;39550;52.230;5.194;2023-06-22T12:25:16;101556.38;;;21.50;65.53
53647;BME280;39550;52.230;5.194;2023-06-22T12:27:42;101553.81;;;21.48;65.51
53647;BME280;39550;52.230;5.194;2023-06-22T12:30:08;101558.13;;;21.51;65.89
53647;BME280;39550;52.230;5.194;2023-06-22T12:32:33;101552.88;;;21.51;65.56
53647;BME280;39550;52.230;5.194;2023-06-22T12:34:59;101554.59;;;21.52;65.33
53647;BME280;39550;52.230;5.194;2023-06-22T12:37:24;101552.88;;;21.51;65.58
53647;BME280;39550;52.230;5.194;2023-06-22T12:39:49;101554.59;;;21.52;65.65
53647;BME280;39550;52.230;5.194;2023-06-22T12:42:16;101553.81;;;21.48;65.72
53647;BME280;39550;52.230;5.194;2023-06-22T12:44:41;101561.72;;;21.47;65.76
53647;BME280;39550;52.230;5.194;2023-06-22T12:47:07;101547.72;;;21.48;65.95
53647;BME280;39550;52.230;5.194;2023-06-22T12:49:36;101552.97;;;21.48;66.06
53647;BME280;39550;52.230;5.194;2023-06-22T12:52:02;101539.91;;;21.46;65.61
53647;BME280;39550;52.230;5.194;2023-06-22T12:54:27;101546.84;;;21.47;65.89
53647;BME280;39550;52.230;5.194;2023-06-22T12:56:56;101539.00;;;21.46;65.74